Time;durP1;ratioP1;P1;durP2;ratioP2;P2;SDS_P1;SDS_P2;PMS_P1;PMS_P2;Temp;Humidity;BMP_temperature;BMP_pressure;BME280_temperature;BME280_humidity;BME280_pressure;Samples;Min_cycle;Max_cycle;Signal;HPM_P1;HPM_P2
2022/12/02 00:02:33;;;;;;;71.70;30.75;;;3.70;99.90;;;;;;4916290;28;20039;-80
2022/12/02 00:05:20;;;;;;;63.45;29.38;;;3.70;99.90;;;;;;4945603;28;20036;-80
2022/12/02 00:07:46;;;;;;;61.53;28.98;;;3.70;99.90;;;;;;4932298;29;20476;-80
2022/12/02 00:10:21;;;;;;;68.93;31.30;;;3.70;99.90;;;;;;4930461;28;20047;-80
2022/12/02 00:12:46;;;;;;;65.35;27.95;;;3.70;99.90;;;;;;4928795;29;20035;-80
2022/12/02 00:15:44;;;;;;;60.78;27.42;;;3.60;99.90;;;;;;4914645;29;20032;-81
2022/12/02 00:18:11;;;;;;;62.05;28.45;;;3.60;99.90;;;;;;4893288;28;20027;-81
2022/12/02 00:20:37;;;;;;;62.00;26.63;;;3.60;99.90;;;;;;4911796;29;20504;-81
2022/12/02 00:23:02;;;;;;;67.63;30.00;;;3.70;99.90;;;;;;4909156;29;20032;-80
2022/12/02 00:25:28;;;;;;;70.30;29.70;;;3.60;99.90;;;;;;4912191;29;20036;-81
2022/12/02 00:27:54;;;;;;;80.28;32.42;;;3.60;99.90;;;;;;4914466;29;20035;-80
2022/12/02 00:30:19;;;;;;;75.15;31.50;;;3.60;99.90;;;;;;4915308;29;20040;-80
2022/12/02 00:32:45;;;;;;;70.55;29.73;;;3.70;99.90;;;;;;4913753;29;20444;-81
2022/12/02 00:35:10;;;;;;;67.28;27.65;;;3.60;99.90;;;;;;4914259;29;20044;-80
2022/12/02 00:37:36;;;;;;;64.95;28.42;;;3.60;99.90;;;;;;4931788;29;20039;-80
2022/12/02 00:40:01;;;;;;;61.05;26.40;;;3.70;99.90;;;;;;4915399;29;20039;-80
2022/12/02 00:42:29;;;;;;;56.72;24.35;;;3.60;99.90;;;;;;4914005;29;20050;-80
2022/12/02 00:47:38;;;;;;;46.00;20.30;;;3.60;99.90;;;;;;4928282;28;20038;-80
2022/12/02 00:50:05;;;;;;;46.67;20.10;;;3.60;99.90;;;;;;4915926;29;20035;-81
2022/12/02 00:52:32;;;;;;;44.72;21.23;;;3.60;99.90;;;;;;4917275;29;20063;-81
2022/12/02 00:54:57;;;;;;;43.55;20.85;;;3.60;99.90;;;;;;4930729;29;20038;-80
2022/12/02 00:57:23;;;;;;;38.50;18.60;;;3.50;99.90;;;;;;4948639;28;20388;-80
2022/12/02 00:59:48;;;;;;;36.63;20.20;;;3.50;99.90;;;;;;4931928;29;20039;-81
2022/12/02 01:02:14;;;;;;;42.63;18.80;;;3.50;99.90;;;;;;4935715;28;20036;-80
2022/12/02 01:04:39;;;;;;;40.72;19.88;;;3.50;99.90;;;;;;4935365;29;20032;-80
2022/12/02 01:07:05;;;;;;;35.85;17.05;;;3.50;99.90;;;;;;4915896;29;20114;-80
2022/12/02 01:09:30;;;;;;;38.20;19.08;;;3.50;99.90;;;;;;4916593;28;20130;-80
2022/12/02 01:11:56;;;;;;;37.33;18.90;;;3.50;99.90;;;;;;4916967;28;20062;-80
2022/12/02 01:14:21;;;;;;;39.05;19.80;;;3.50;99.90;;;;;;4918382;29;20083;-80
2022/12/02 01:16:47;;;;;;;38.08;17.95;;;3.50;99.90;;;;;;4916322;29;20062;-80
2022/12/02 01:19:12;;;;;;;40.88;18.58;;;3.50;99.90;;;;;;4951367;28;20035;-80
2022/12/02 01:21:38;;;;;;;43.45;20.23;;;3.50;99.90;;;;;;4918020;29;20047;-80
2022/12/02 01:24:04;;;;;;;49.25;24.50;;;3.40;99.90;;;;;;4923021;29;20053;-80
2022/12/02 01:26:29;;;;;;;57.50;28.25;;;3.40;99.90;;;;;;4916739;29;20535;-80
2022/12/02 01:28:55;;;;;;;55.53;26.17;;;3.40;99.90;;;;;;4907328;28;20271;-80
2022/12/02 01:31:20;;;;;;;60.75;26.50;;;3.40;99.90;;;;;;4936163;29;20032;-80
2022/12/02 01:33:46;;;;;;;67.63;27.08;;;3.40;99.90;;;;;;4922258;29;20036;-81
2022/12/02 01:36:12;;;;;;;70.55;28.52;;;3.40;99.90;;;;;;4918675;29;20031;-81
2022/12/02 01:38:37;;;;;;;65.32;28.15;;;3.40;99.90;;;;;;4900838;29;20024;-81
2022/12/02 01:41:03;;;;;;;68.07;28.88;;;3.50;99.90;;;;;;4947323;28;20111;-81
2022/12/02 01:43:28;;;;;;;66.97;26.23;;;3.50;99.90;;;;;;4933952;28;20039;-80
2022/12/02 01:45:54;;;;;;;67.63;27.65;;;3.50;99.90;;;;;;4923606;29;20086;-81
2022/12/02 01:48:19;;;;;;;68.57;27.88;;;3.50;99.90;;;;;;4942250;28;20032;-80
2022/12/02 01:50:45;;;;;;;65.82;28.50;;;3.40;99.90;;;;;;4928414;29;20055;-80
2022/12/02 01:53:11;;;;;;;65.07;27.90;;;3.40;99.90;;;;;;4912642;29;20036;-80
2022/12/02 01:55:36;;;;;;;66.03;26.88;;;3.40;99.90;;;;;;4916193;28;20091;-80
2022/12/02 01:58:04;;;;;;;74.82;30.73;;;3.40;99.90;;;;;;4927856;29;20031;-80
2022/12/02 02:00:30;;;;;;;70.55;27.80;;;3.40;99.90;;;;;;4932145;29;20504;-80
2022/12/02 02:02:55;;;;;;;58.30;25.40;;;3.40;99.90;;;;;;4916902;29;20040;-80
2022/12/02 02:05:28;;;;;;;67.57;27.27;;;3.40;99.90;;;;;;4916422;29;20146;-81
2022/12/02 02:07:56;;;;;;;71.38;30.08;;;3.50;99.90;;;;;;4933700;29;20042;-80
2022/12/02 02:10:22;;;;;;;72.97;30.23;;;3.50;99.90;;;;;;4915576;29;20040;-80
2022/12/02 02:12:48;;;;;;;67.43;27.63;;;3.50;99.90;;;;;;4916526;29;20048;-80
2022/12/02 02:15:14;;;;;;;67.82;27.42;;;3.40;99.90;;;;;;4911307;28;20090;-81
2022/12/02 02:17:40;;;;;;;68.05;25.45;;;3.40;99.90;;;;;;4902288;29;20032;-80
2022/12/02 02:20:07;;;;;;;63.75;28.88;;;3.40;99.90;;;;;;4916028;29;20065;-80
2022/12/02 02:22:44;;;;;;;71.13;28.15;;;3.40;99.90;;;;;;4934954;29;20672;-80
2022/12/02 02:25:12;;;;;;;70.57;31.23;;;3.40;99.90;;;;;;4931364;29;20055;-80
2022/12/02 02:27:38;;;;;;;67.57;27.48;;;3.40;99.90;;;;;;4929545;29;20552;-80
2022/12/02 02:30:05;;;;;;;76.88;30.00;;;3.40;99.90;;;;;;4937283;28;20118;-80
2022/12/02 02:32:30;;;;;;;71.68;27.15;;;3.40;99.90;;;;;;4930743;29;20504;-80
2022/12/02 02:34:56;;;;;;;67.00;25.42;;;3.40;99.90;;;;;;4918890;29;20031;-80
2022/12/02 02:37:21;;;;;;;74.97;29.75;;;3.40;99.90;;;;;;4899942;29;20122;-80
2022/12/02 02:39:47;;;;;;;68.82;30.25;;;3.40;99.90;;;;;;4922126;29;20036;-80
2022/12/02 02:42:12;;;;;;;63.95;25.85;;;3.40;99.90;;;;;;4931035;28;20395;-80
2022/12/02 02:44:38;;;;;;;71.55;28.58;;;3.30;99.90;;;;;;4914378;29;20504;-81
2022/12/02 02:47:04;;;;;;;73.40;29.40;;;3.30;99.90;;;;;;4919245;29;20042;-80
2022/12/02 02:49:29;;;;;;;72.72;30.25;;;3.30;99.90;;;;;;4929296;29;20044;-81
2022/12/02 02:51:55;;;;;;;71.05;30.88;;;3.30;99.90;;;;;;4933130;29;20050;-81
2022/12/02 02:54:20;;;;;;;76.10;30.90;;;3.30;99.90;;;;;;4930328;29;20035;-81
2022/12/02 02:56:46;;;;;;;71.80;30.80;;;3.30;99.90;;;;;;4929776;29;20118;-81
2022/12/02 02:59:14;;;;;;;74.93;31.42;;;3.30;99.90;;;;;;4914121;29;20815;-80
2022/12/02 03:01:40;;;;;;;70.47;30.33;;;3.30;99.90;;;;;;4916649;29;20353;-80
2022/12/02 03:04:08;;;;;;;69.63;29.27;;;3.30;99.90;;;;;;4921121;28;20028;-80
2022/12/02 03:06:34;;;;;;;68.38;26.95;;;3.30;99.90;;;;;;4915821;29;20138;-80
2022/12/02 03:08:59;;;;;;;70.28;29.00;;;3.40;99.90;;;;;;4931356;29;20482;-80
2022/12/02 03:11:25;;;;;;;67.63;28.05;;;3.40;99.90;;;;;;4932731;29;20035;-80
2022/12/02 03:13:51;;;;;;;71.43;28.73;;;3.40;99.90;;;;;;4897480;29;20027;-80
2022/12/02 03:16:18;;;;;;;69.53;28.65;;;3.30;99.90;;;;;;4899052;29;20020;-80
2022/12/02 03:18:43;;;;;;;73.50;34.45;;;3.30;99.90;;;;;;4920585;28;20453;-81
2022/12/02 03:21:09;;;;;;;67.15;26.58;;;3.30;99.90;;;;;;4917098;28;20106;-80
2022/12/02 03:23:34;;;;;;;70.25;26.48;;;3.30;99.90;;;;;;4927697;29;20027;-80
2022/12/02 03:26:00;;;;;;;72.72;28.42;;;3.30;99.90;;;;;;4931519;29;20050;-81
2022/12/02 03:28:26;;;;;;;67.40;29.42;;;3.30;99.90;;;;;;4929863;29;20083;-80
2022/12/02 03:30:52;;;;;;;71.07;28.42;;;3.30;99.90;;;;;;4915210;28;20035;-81
2022/12/02 03:33:17;;;;;;;74.82;30.23;;;3.30;99.90;;;;;;4929063;29;20071;-80
2022/12/02 03:35:43;;;;;;;71.22;29.92;;;3.30;99.90;;;;;;4911141;28;20031;-80
2022/12/02 03:38:08;;;;;;;74.70;27.88;;;3.30;99.90;;;;;;4912980;29;20042;-80
2022/12/02 03:40:34;;;;;;;73.68;26.48;;;3.20;99.90;;;;;;4930529;29;20047;-80
2022/12/02 03:42:59;;;;;;;70.90;26.58;;;3.20;99.90;;;;;;4929631;29;20067;-80
2022/12/02 03:45:25;;;;;;;74.65;30.13;;;3.30;99.90;;;;;;4932160;29;20039;-80
2022/12/02 03:47:50;;;;;;;69.80;25.95;;;3.30;99.90;;;;;;4894593;29;20825;-80
2022/12/02 03:50:16;;;;;;;69.45;28.52;;;3.30;99.90;;;;;;4901181;28;20057;-80
2022/12/02 03:52:42;;;;;;;68.45;27.92;;;3.30;99.90;;;;;;4926729;28;20031;-80
2022/12/02 03:55:08;;;;;;;68.10;26.65;;;3.30;99.90;;;;;;4934133;29;20047;-79
2022/12/02 03:57:33;;;;;;;71.97;27.70;;;3.30;99.90;;;;;;4912142;29;20027;-80
2022/12/02 03:59:59;;;;;;;74.07;28.50;;;3.20;99.90;;;;;;4918346;28;20506;-81
2022/12/02 04:02:25;;;;;;;64.68;26.40;;;3.20;99.90;;;;;;4930752;29;20059;-80
2022/12/02 04:04:50;;;;;;;66.65;25.35;;;3.30;99.90;;;;;;4915044;28;20039;-80
2022/12/02 04:07:16;;;;;;;64.45;27.05;;;3.20;99.90;;;;;;4914133;29;20162;-80
2022/12/02 04:09:41;;;;;;;71.63;28.98;;;3.30;99.90;;;;;;4916622;28;20135;-80
2022/12/02 04:12:07;;;;;;;70.68;28.45;;;3.30;99.90;;;;;;4914913;29;20116;-80
2022/12/02 04:14:33;;;;;;;73.40;27.85;;;3.30;99.90;;;;;;4913634;29;20491;-79
2022/12/02 04:16:58;;;;;;;67.78;26.92;;;3.30;99.90;;;;;;4928124;28;20469;-80
2022/12/02 04:19:24;;;;;;;73.35;28.48;;;3.30;99.90;;;;;;4931927;29;20396;-80
2022/12/02 04:21:49;;;;;;;79.18;29.45;;;3.30;99.90;;;;;;4933206;29;20439;-79
2022/12/02 04:24:15;;;;;;;78.40;28.88;;;3.30;99.90;;;;;;4917960;29;20473;-80
2022/12/02 04:26:40;;;;;;;79.28;29.08;;;3.30;99.90;;;;;;4915700;28;20131;-81
2022/12/02 04:29:06;;;;;;;77.22;27.10;;;3.30;99.90;;;;;;4933746;29;20071;-80
2022/12/02 04:31:32;;;;;;;78.07;29.70;;;3.30;99.90;;;;;;4917536;29;20032;-81
2022/12/02 04:33:57;;;;;;;73.18;28.67;;;3.20;99.90;;;;;;4921034;28;20032;-80
2022/12/02 04:36:23;;;;;;;83.35;30.42;;;3.30;99.90;;;;;;4917565;29;20039;-80
2022/12/02 04:38:48;;;;;;;73.18;28.10;;;3.20;99.90;;;;;;4918757;28;20028;-80
2022/12/02 04:41:14;;;;;;;76.35;29.77;;;3.30;99.90;;;;;;4918658;29;20020;-80
2022/12/02 04:43:40;;;;;;;76.00;27.20;;;3.30;99.90;;;;;;4915973;29;20742;-80
2022/12/02 04:46:05;;;;;;;67.55;26.63;;;3.20;99.90;;;;;;4918188;29;20032;-80
2022/12/02 04:48:31;;;;;;;63.28;23.55;;;3.20;99.90;;;;;;4932735;29;20036;-80
2022/12/02 04:50:57;;;;;;;70.50;28.92;;;3.20;99.90;;;;;;4938624;29;20126;-80
2022/12/02 04:53:22;;;;;;;76.18;30.45;;;3.30;99.90;;;;;;4954234;28;20102;-80
2022/12/02 04:55:48;;;;;;;65.82;25.90;;;3.20;99.90;;;;;;4934186;28;20409;-80
2022/12/02 04:58:13;;;;;;;71.90;27.45;;;3.20;99.90;;;;;;4913487;29;20536;-80
2022/12/02 05:00:39;;;;;;;75.28;29.65;;;3.20;99.90;;;;;;4919344;28;20431;-81
2022/12/02 05:03:04;;;;;;;71.03;27.63;;;3.20;99.90;;;;;;4936628;29;20039;-80
2022/12/02 05:05:30;;;;;;;79.15;31.50;;;3.30;99.90;;;;;;4904884;29;20039;-80
2022/12/02 05:07:55;;;;;;;69.72;26.00;;;3.30;99.90;;;;;;4919876;29;20138;-80
2022/12/02 05:10:21;;;;;;;86.93;29.83;;;3.20;99.90;;;;;;4917189;29;20063;-81
2022/12/02 05:12:46;;;;;;;74.80;28.30;;;3.20;99.90;;;;;;4918219;28;20111;-81
2022/12/02 05:15:13;;;;;;;81.57;29.13;;;3.20;99.90;;;;;;4920860;28;20493;-79
2022/12/02 05:17:39;;;;;;;79.57;28.13;;;3.20;99.90;;;;;;4935013;28;20027;-80
2022/12/02 05:20:05;;;;;;;75.75;28.15;;;3.20;99.90;;;;;;4934958;28;20526;-79
2022/12/02 05:22:30;;;;;;;91.57;34.33;;;3.20;99.90;;;;;;4926702;28;21176;-79
2022/12/02 05:24:56;;;;;;;74.15;28.75;;;3.20;99.90;;;;;;4927011;29;20028;-80
2022/12/02 05:27:23;;;;;;;74.95;30.35;;;3.20;99.90;;;;;;4933653;29;20036;-80
2022/12/02 05:29:49;;;;;;;78.03;28.38;;;3.20;99.90;;;;;;4916779;29;20035;-80
2022/12/02 05:32:15;;;;;;;76.55;26.80;;;3.20;99.90;;;;;;4907258;29;20040;-80
2022/12/02 05:34:40;;;;;;;69.05;26.33;;;3.20;99.90;;;;;;4904794;29;20028;-81
2022/12/02 05:37:06;;;;;;;70.38;32.25;;;3.20;99.90;;;;;;4916082;29;20436;-80
2022/12/02 05:39:32;;;;;;;75.00;27.65;;;3.20;99.90;;;;;;4918306;29;20119;-80
2022/12/02 05:42:00;;;;;;;72.75;27.70;;;3.10;99.90;;;;;;4931651;28;20024;-81
2022/12/02 05:44:27;;;;;;;72.00;27.00;;;3.10;99.90;;;;;;4946970;28;20157;-80
2022/12/02 05:47:00;;;;;;;81.93;28.35;;;3.10;99.90;;;;;;4918850;29;20039;-80
2022/12/02 05:49:25;;;;;;;70.20;25.30;;;3.10;99.90;;;;;;4930744;29;20044;-80
2022/12/02 05:51:55;;;;;;;77.20;26.00;;;3.10;99.90;;;;;;4936351;29;20036;-80
2022/12/02 05:54:21;;;;;;;69.38;27.25;;;3.10;99.90;;;;;;4914768;29;20032;-80
2022/12/02 05:56:47;;;;;;;79.32;31.13;;;3.10;99.90;;;;;;4931358;29;20031;-80
2022/12/02 05:59:17;;;;;;;72.40;27.10;;;3.10;99.90;;;;;;4913007;29;20036;-80
2022/12/02 06:01:45;;;;;;;87.68;30.98;;;3.10;99.90;;;;;;4912811;29;20400;-79
2022/12/02 06:04:20;;;;;;;82.65;30.60;;;3.10;99.90;;;;;;4925510;29;20054;-80
2022/12/02 06:06:46;;;;;;;82.68;28.48;;;3.00;99.90;;;;;;4895743;29;20126;-80
2022/12/02 06:09:20;;;;;;;87.93;32.92;;;3.00;99.90;;;;;;4933501;29;20449;-80
2022/12/02 06:11:46;;;;;;;87.10;28.88;;;3.10;99.90;;;;;;4913110;29;20024;-81
2022/12/02 06:14:19;;;;;;;84.35;29.60;;;3.00;99.90;;;;;;4932722;29;20035;-81
2022/12/02 06:16:50;;;;;;;101.07;33.35;;;3.10;99.90;;;;;;4896205;28;20574;-81
2022/12/02 06:19:29;;;;;;;96.13;31.60;;;3.00;99.90;;;;;;4929978;29;20110;-80
2022/12/02 06:21:56;;;;;;;112.65;37.50;;;3.00;99.90;;;;;;4920036;29;20710;-80
2022/12/02 06:24:27;;;;;;;121.07;36.78;;;3.10;99.90;;;;;;4927251;29;20036;-80
2022/12/02 06:26:54;;;;;;;134.48;39.55;;;3.00;99.90;;;;;;4933647;29;20075;-80
2022/12/02 06:29:19;;;;;;;124.75;39.95;;;3.10;99.90;;;;;;4920050;29;20046;-80
2022/12/02 06:31:45;;;;;;;121.18;39.97;;;3.00;99.90;;;;;;4916567;29;20032;-81
2022/12/02 06:34:22;;;;;;;129.27;38.75;;;3.00;99.90;;;;;;4931700;29;20035;-81
2022/12/02 06:36:47;;;;;;;124.85;43.78;;;3.00;99.90;;;;;;4918776;29;20032;-81
2022/12/02 06:39:22;;;;;;;131.70;39.50;;;3.00;99.90;;;;;;4917241;29;20082;-80
2022/12/02 06:41:48;;;;;;;117.97;37.33;;;3.00;99.90;;;;;;4930270;29;20505;-80
2022/12/02 06:47:36;;;;;;;128.82;36.88;;;3.00;99.90;;;;;;4943549;28;20044;-82
2022/12/02 06:50:04;;;;;;;108.63;35.13;;;3.00;99.90;;;;;;4930624;28;20162;-81
2022/12/02 06:52:36;;;;;;;129.20;40.25;;;3.00;99.90;;;;;;4938326;28;20032;-82
2022/12/02 06:55:02;;;;;;;129.23;39.65;;;2.90;99.90;;;;;;4932848;29;20656;-82
2022/12/02 06:57:30;;;;;;;137.60;42.95;;;2.90;99.90;;;;;;4916849;29;20076;-82
2022/12/02 06:59:57;;;;;;;124.00;41.03;;;2.90;99.90;;;;;;4937102;28;20167;-82
2022/12/02 07:02:26;;;;;;;115.32;40.97;;;2.90;99.90;;;;;;4905889;28;20085;-81
2022/12/02 07:04:51;;;;;;;119.38;37.92;;;2.90;99.90;;;;;;4918530;28;20043;-81
2022/12/02 07:07:30;;;;;;;125.70;37.95;;;2.90;99.90;;;;;;4948542;28;20034;-81
2022/12/02 07:10:07;;;;;;;124.60;41.45;;;2.90;99.90;;;;;;4922632;29;20031;-84
2022/12/02 07:12:42;;;;;;;136.30;44.05;;;3.00;99.90;;;;;;4917973;29;20032;-81
2022/12/02 07:15:15;;;;;;;119.03;43.60;;;2.90;99.90;;;;;;4914620;29;20046;-81
2022/12/02 07:17:42;;;;;;;120.78;38.58;;;2.90;99.90;;;;;;4915177;29;20447;-81
2022/12/02 07:20:10;;;;;;;133.77;46.65;;;2.90;99.90;;;;;;4933880;28;20027;-82
2022/12/02 07:22:36;;;;;;;114.90;39.13;;;2.90;99.90;;;;;;4949463;28;20027;-81
2022/12/02 07:25:09;;;;;;;113.53;38.30;;;2.90;99.90;;;;;;4939169;28;20071;-80
2022/12/02 07:27:39;;;;;;;110.53;38.63;;;2.90;99.90;;;;;;4935690;28;20040;-80
2022/12/02 07:30:27;;;;;;;115.63;40.75;;;2.90;99.90;;;;;;4929201;29;20036;-80
2022/12/02 07:32:52;;;;;;;113.22;39.28;;;2.90;99.90;;;;;;4904386;29;20055;-81
2022/12/02 07:35:18;;;;;;;106.38;37.80;;;2.90;99.90;;;;;;4918326;28;20020;-80
2022/12/02 07:37:44;;;;;;;104.32;36.13;;;2.90;99.90;;;;;;4918749;29;20033;-81
2022/12/02 07:40:15;;;;;;;97.80;36.83;;;2.90;99.90;;;;;;4900254;28;20032;-80
2022/12/02 07:42:40;;;;;;;107.38;40.88;;;2.90;99.90;;;;;;4918198;29;20590;-81
2022/12/02 07:45:07;;;;;;;91.28;33.10;;;2.90;99.90;;;;;;4930486;29;20032;-81
2022/12/02 07:47:34;;;;;;;98.55;35.95;;;2.90;99.90;;;;;;4900937;29;20475;-82
2022/12/02 07:50:06;;;;;;;87.40;32.75;;;2.90;99.90;;;;;;4915916;29;20036;-80
2022/12/02 07:52:31;;;;;;;99.20;36.38;;;2.90;99.90;;;;;;4932197;29;20050;-80
2022/12/02 07:54:57;;;;;;;99.45;39.22;;;2.90;99.90;;;;;;4902695;29;20035;-81
2022/12/02 07:57:24;;;;;;;91.18;34.13;;;2.90;99.90;;;;;;4918679;29;20039;-82
2022/12/02 07:59:49;;;;;;;94.25;35.78;;;2.90;99.90;;;;;;4904867;28;20404;-80
2022/12/02 08:02:15;;;;;;;87.57;32.53;;;2.90;99.90;;;;;;4917943;29;20030;-80
2022/12/02 08:04:40;;;;;;;92.55;36.08;;;2.90;99.90;;;;;;4916413;28;20508;-81
2022/12/02 08:07:06;;;;;;;92.95;34.75;;;2.90;99.90;;;;;;4935237;29;20597;-81
2022/12/02 08:09:32;;;;;;;86.03;32.35;;;2.90;99.90;;;;;;4916533;29;20039;-81
2022/12/02 08:11:57;;;;;;;91.50;32.72;;;2.90;99.90;;;;;;4913042;29;20028;-81
2022/12/02 08:14:23;;;;;;;74.40;30.67;;;3.00;99.90;;;;;;4897389;29;20035;-81
2022/12/02 08:16:48;;;;;;;76.70;33.33;;;3.00;99.90;;;;;;4931719;29;20114;-83
2022/12/02 08:19:14;;;;;;;79.70;33.13;;;3.00;99.90;;;;;;4898798;28;20027;-81
2022/12/02 08:21:40;;;;;;;79.47;31.45;;;3.00;99.90;;;;;;4903546;29;20032;-81
2022/12/02 08:24:08;;;;;;;72.30;29.42;;;3.00;99.90;;;;;;4918217;29;20055;-81
2022/12/02 08:26:34;;;;;;;72.57;30.45;;;3.00;99.90;;;;;;4915483;29;20511;-81
2022/12/02 08:28:59;;;;;;;73.40;31.98;;;3.00;99.90;;;;;;4915914;29;20098;-81
2022/12/02 08:31:25;;;;;;;66.85;28.63;;;3.00;99.90;;;;;;4914690;29;20024;-82
2022/12/02 08:33:52;;;;;;;71.63;32.95;;;3.00;99.90;;;;;;4922406;29;20095;-82
2022/12/02 08:36:18;;;;;;;78.15;30.98;;;3.00;99.90;;;;;;4913911;29;20034;-82
2022/12/02 08:38:44;;;;;;;74.07;28.92;;;3.00;99.90;;;;;;4898980;29;20530;-82
2022/12/02 08:41:10;;;;;;;71.95;31.25;;;3.10;99.90;;;;;;4931288;28;20035;-83
2022/12/02 08:43:35;;;;;;;67.07;28.95;;;3.20;99.90;;;;;;4933651;29;20047;-82
2022/12/02 08:46:01;;;;;;;73.70;27.42;;;3.10;99.90;;;;;;4916999;28;20108;-82
2022/12/02 08:48:26;;;;;;;65.97;28.23;;;3.20;99.90;;;;;;4898450;29;20544;-82
2022/12/02 08:50:53;;;;;;;61.25;24.95;;;3.20;99.90;;;;;;4931702;29;20046;-82
2022/12/02 08:53:19;;;;;;;67.25;28.85;;;3.20;99.90;;;;;;4929494;29;20035;-82
2022/12/02 08:55:45;;;;;;;66.40;28.00;;;3.20;99.90;;;;;;4931194;29;20573;-83
2022/12/02 08:58:11;;;;;;;64.85;28.33;;;3.20;99.90;;;;;;4914777;28;20035;-82
2022/12/02 09:00:36;;;;;;;67.82;27.98;;;3.30;99.90;;;;;;4939773;28;20401;-82
2022/12/02 09:03:02;;;;;;;61.58;27.85;;;3.30;99.90;;;;;;4901901;29;20114;-82
2022/12/02 09:05:28;;;;;;;62.95;27.27;;;3.30;99.90;;;;;;4943559;28;21136;-82
2022/12/02 09:07:53;;;;;;;64.80;28.60;;;3.30;99.90;;;;;;4936936;29;20042;-82
2022/12/02 09:10:19;;;;;;;69.50;27.92;;;3.40;99.90;;;;;;4918184;29;20035;-82
2022/12/02 09:12:58;;;;;;;62.80;26.35;;;3.40;99.90;;;;;;4921252;29;20102;-81
2022/12/02 09:15:24;;;;;;;70.10;29.17;;;3.40;99.90;;;;;;4917926;29;20032;-81
2022/12/02 09:17:50;;;;;;;64.22;30.95;;;3.40;99.90;;;;;;4923899;29;20054;-82
2022/12/02 09:20:16;;;;;;;63.80;26.48;;;3.40;99.90;;;;;;4937833;29;20377;-82
2022/12/02 09:22:44;;;;;;;63.50;29.05;;;3.40;99.90;;;;;;4921338;29;20059;-82
2022/12/02 09:25:10;;;;;;;63.75;27.55;;;3.40;99.90;;;;;;4919028;29;20101;-82
2022/12/02 09:27:35;;;;;;;57.55;27.27;;;3.40;99.90;;;;;;4917659;29;20155;-81
2022/12/02 09:30:01;;;;;;;55.08;27.23;;;3.40;99.90;;;;;;4921071;29;20427;-81
2022/12/02 09:32:28;;;;;;;60.42;27.70;;;3.40;99.90;;;;;;4932148;29;20044;-81
2022/12/02 09:34:53;;;;;;;58.95;26.50;;;3.40;99.90;;;;;;4915640;29;20130;-81
2022/12/02 09:37:19;;;;;;;62.00;28.35;;;3.50;99.90;;;;;;4935501;29;20136;-81
2022/12/02 09:39:44;;;;;;;58.42;27.05;;;3.40;99.90;;;;;;4920372;28;20109;-81
2022/12/02 09:42:10;;;;;;;55.50;26.15;;;3.50;99.90;;;;;;4949640;28;20027;-81
2022/12/02 09:44:35;;;;;;;49.75;26.42;;;3.50;99.90;;;;;;4933293;29;20056;-82
2022/12/02 09:47:01;;;;;;;53.67;25.50;;;3.50;99.90;;;;;;4912953;29;20129;-81
2022/12/02 09:49:26;;;;;;;50.80;24.90;;;3.50;99.90;;;;;;4917028;29;20043;-81
2022/12/02 09:51:58;;;;;;;52.70;28.63;;;3.50;99.90;;;;;;4918969;29;20042;-81
2022/12/02 09:54:24;;;;;;;47.72;24.77;;;3.50;99.90;;;;;;4918437;29;20124;-81
2022/12/02 09:56:49;;;;;;;54.83;25.77;;;3.60;99.90;;;;;;4922323;28;20111;-82
2022/12/02 09:59:15;;;;;;;55.35;27.38;;;3.60;99.90;;;;;;4920524;28;20058;-80
2022/12/02 10:01:46;;;;;;;48.50;26.65;;;3.60;99.90;;;;;;4917911;29;20027;-82
2022/12/02 10:04:12;;;;;;;51.70;26.38;;;3.60;99.90;;;;;;4920319;29;20679;-81
2022/12/02 10:06:38;;;;;;;59.45;27.65;;;3.60;99.90;;;;;;4918676;29;20452;-81
2022/12/02 10:09:03;;;;;;;55.95;29.02;;;3.60;99.90;;;;;;4935059;29;20039;-81
2022/12/02 10:11:33;;;;;;;57.67;27.42;;;3.60;99.90;;;;;;4921259;29;21001;-81
2022/12/02 10:13:59;;;;;;;53.92;28.27;;;3.60;99.90;;;;;;4902421;28;20488;-81
2022/12/02 10:16:32;;;;;;;54.13;29.67;;;3.60;99.90;;;;;;4913619;29;20036;-81
2022/12/02 10:19:00;;;;;;;55.55;25.92;;;3.60;99.90;;;;;;4899702;28;20531;-81
2022/12/02 10:21:25;;;;;;;57.42;29.45;;;3.60;99.90;;;;;;4920704;29;20046;-81
2022/12/02 10:23:56;;;;;;;56.97;26.80;;;3.60;99.90;;;;;;4901107;29;20052;-80
2022/12/02 10:26:22;;;;;;;57.42;29.25;;;3.70;99.90;;;;;;4916896;29;20599;-80
2022/12/02 10:28:59;;;;;;;56.70;27.02;;;3.70;99.90;;;;;;4917668;28;20546;-81
2022/12/02 10:31:25;;;;;;;56.42;26.50;;;3.70;99.90;;;;;;4934221;29;20031;-81
2022/12/02 10:33:55;;;;;;;47.88;25.55;;;3.70;99.90;;;;;;4934129;29;20475;-81
2022/12/02 10:36:38;;;;;;;56.95;28.58;;;3.80;99.90;;;;;;4918168;28;20027;-81
2022/12/02 10:39:16;;;;;;;54.95;30.65;;;3.80;99.90;;;;;;4900583;29;20070;-81
2022/12/02 10:41:41;;;;;;;57.45;30.10;;;3.80;99.90;;;;;;4927185;29;20040;-81
2022/12/02 10:44:17;;;;;;;54.60;24.75;;;3.70;99.90;;;;;;4898503;29;20036;-81
2022/12/02 10:46:43;;;;;;;;;;;3.70;99.90;;;;;;4922215;28;20404;-80
2022/12/02 10:49:29;;;;;;;56.33;27.77;;;3.70;99.90;;;;;;4954661;28;19922;-81
2022/12/02 10:51:55;;;;;;;58.22;29.40;;;3.80;99.90;;;;;;4932986;29;20027;-81
2022/12/02 10:54:28;;;;;;;59.22;28.48;;;3.80;99.90;;;;;;4933898;29;20036;-81
2022/12/02 10:56:59;;;;;;;56.78;25.98;;;3.80;99.90;;;;;;4913124;29;20032;-81
2022/12/02 10:59:25;;;;;;;48.25;23.95;;;3.90;99.90;;;;;;4917390;29;20128;-82
2022/12/02 11:01:51;;;;;;;57.47;27.42;;;3.90;99.90;;;;;;4913537;29;20115;-82
2022/12/02 11:04:16;;;;;;;55.33;26.83;;;3.90;99.90;;;;;;4912711;29;20491;-82
2022/12/02 11:06:42;;;;;;;53.70;27.33;;;3.90;99.90;;;;;;4918749;28;20040;-82
2022/12/02 11:09:17;;;;;;;57.92;27.35;;;3.90;99.90;;;;;;4916602;29;20492;-82
2022/12/02 11:11:49;;;;;;;59.95;28.08;;;3.90;99.90;;;;;;4905235;28;20038;-81
2022/12/02 11:14:38;;;;;;;65.03;31.27;;;4.00;99.90;;;;;;4916545;29;20031;-81
2022/12/02 11:17:06;;;;;;;59.92;28.65;;;4.00;99.90;;;;;;4950272;28;20753;-81
2022/12/02 11:19:32;;;;;;;61.10;33.47;;;4.00;99.90;;;;;;4915302;29;20115;-82
2022/12/02 11:22:00;;;;;;;58.00;26.85;;;4.00;99.90;;;;;;4943034;28;20151;-81
2022/12/02 11:24:25;;;;;;;64.03;25.60;;;4.00;99.90;;;;;;4946194;28;20039;-81
2022/12/02 11:27:00;;;;;;;56.13;30.08;;;4.00;99.90;;;;;;4951951;28;20027;-81
2022/12/02 11:29:26;;;;;;;57.95;27.38;;;4.00;99.90;;;;;;4934069;28;20055;-81
2022/12/02 11:32:21;;;;;;;58.97;27.88;;;4.00;99.90;;;;;;4898809;28;20500;-82
2022/12/02 11:34:51;;;;;;;59.67;28.90;;;4.10;99.90;;;;;;4923981;28;20492;-81
2022/12/02 11:37:29;;;;;;;60.92;27.15;;;4.10;99.90;;;;;;4913803;29;20032;-81
2022/12/02 11:40:05;;;;;;;58.30;29.55;;;4.10;99.90;;;;;;4953299;28;20032;-80
2022/12/02 11:42:32;;;;;;;65.53;32.00;;;4.00;99.90;;;;;;4946784;29;20113;-79
2022/12/02 11:45:15;;;;;;;59.63;26.92;;;4.00;99.90;;;;;;4932550;28;20392;-82
2022/12/02 11:47:42;;;;;;;61.63;27.27;;;3.90;99.90;;;;;;4947467;28;20032;-81
2022/12/02 11:50:14;;;;;;;63.33;29.70;;;4.00;99.90;;;;;;4922417;28;20040;-81
2022/12/02 11:52:41;;;;;;;66.05;32.10;;;4.00;99.90;;;;;;4929862;28;20032;-81
2022/12/02 11:55:12;;;;;;;55.70;24.98;;;4.00;99.90;;;;;;4932920;28;20031;-80
2022/12/02 11:57:47;;;;;;;66.72;29.08;;;4.00;99.90;;;;;;4934213;28;20114;-81
2022/12/02 12:00:23;;;;;;;64.63;28.55;;;4.00;99.90;;;;;;4915321;29;20031;-81
2022/12/02 12:03:06;;;;;;;55.78;27.83;;;4.00;99.90;;;;;;4947781;28;20420;-80
2022/12/02 12:05:32;;;;;;;59.30;30.13;;;4.00;99.90;;;;;;4947338;28;20078;-81
2022/12/02 12:07:58;;;;;;;61.03;27.38;;;4.00;99.90;;;;;;4916366;28;20125;-80
2022/12/02 12:10:28;;;;;;;58.58;28.55;;;4.00;99.90;;;;;;4914047;29;20518;-80
2022/12/02 12:13:21;;;;;;;56.45;27.38;;;4.00;99.90;;;;;;4901567;29;20048;-81
2022/12/02 12:15:59;;;;;;;61.72;32.03;;;4.00;99.90;;;;;;4945896;28;20043;-80
2022/12/02 12:18:44;;;;;;;63.08;28.38;;;4.00;99.90;;;;;;4929449;29;20492;-81
2022/12/02 12:21:11;;;;;;;58.78;27.25;;;4.10;99.90;;;;;;4934580;28;20043;-80
2022/12/02 12:23:39;;;;;;;58.70;28.38;;;4.10;99.90;;;;;;4932481;29;20480;-81
2022/12/02 12:26:05;;;;;;;61.58;27.80;;;4.10;99.90;;;;;;4914139;29;20043;-81
2022/12/02 12:28:33;;;;;;;58.78;30.15;;;4.10;99.90;;;;;;4917364;29;20040;-80
2022/12/02 12:30:59;;;;;;;56.42;28.20;;;4.10;99.90;;;;;;4909821;29;20039;-81
2022/12/02 12:33:25;;;;;;;65.78;31.95;;;4.20;99.90;;;;;;4916544;29;20024;-81
2022/12/02 12:35:52;;;;;;;57.03;27.08;;;4.10;99.90;;;;;;4915875;29;20042;-81
2022/12/02 12:38:22;;;;;;;59.45;30.90;;;4.20;99.90;;;;;;4912797;29;20032;-80
2022/12/02 12:40:48;;;;;;;59.50;30.08;;;4.10;99.90;;;;;;4898965;29;20634;-80
2022/12/02 12:43:14;;;;;;;63.45;28.52;;;4.20;99.90;;;;;;4915827;29;20055;-80
2022/12/02 12:45:39;;;;;;;62.67;29.25;;;4.20;99.90;;;;;;4916840;28;20685;-81